sensor_id;sensor_type;location;lat;lon;timestamp;P1;durP1;ratioP1;P2;durP2;ratioP2
6185;SDS011;3126;52.738;8.316;2022-10-23T00:02:17;11.45;;;7.32;;
6185;SDS011;3126;52.738;8.316;2022-10-23T00:07:18;10.75;;;7.00;;
6185;SDS011;3126;52.738;8.316;2022-10-23T00:12:18;10.05;;;7.40;;
6185;SDS011;3126;52.738;8.316;2022-10-23T00:17:19;10.27;;;6.68;;
6185;SDS011;3126;52.738;8.316;2022-10-23T00:22:19;9.23;;;6.70;;
6185;SDS011;3126;52.738;8.316;2022-10-23T00:27:20;13.02;;;6.28;;
6185;SDS011;3126;52.738;8.316;2022-10-23T00:32:20;10.63;;;6.60;;
6185;SDS011;3126;52.738;8.316;2022-10-23T00:37:21;9.23;;;6.82;;
6185;SDS011;3126;52.738;8.316;2022-10-23T00:42:21;10.88;;;6.57;;
6185;SDS011;3126;52.738;8.316;2022-10-23T00:47:22;9.30;;;6.13;;
6185;SDS011;3126;52.738;8.316;2022-10-23T00:52:23;11.13;;;7.10;;
6185;SDS011;3126;52.738;8.316;2022-10-23T00:57:23;12.18;;;7.20;;
6185;SDS011;3126;52.738;8.316;2022-10-23T01:02:24;9.88;;;7.45;;
6185;SDS011;3126;52.738;8.316;2022-10-23T01:17:51;12.50;;;7.28;;
6185;SDS011;3126;52.738;8.316;2022-10-23T01:33:46;12.00;;;7.00;;
6185;SDS011;3126;52.738;8.316;2022-10-23T01:39:01;10.63;;;6.53;;
6185;SDS011;3126;52.738;8.316;2022-10-23T01:44:28;9.05;;;6.57;;
6185;SDS011;3126;52.738;8.316;2022-10-23T01:49:30;9.50;;;6.85;;
6185;SDS011;3126;52.738;8.316;2022-10-23T01:54:32;11.63;;;6.78;;
6185;SDS011;3126;52.738;8.316;2022-10-23T01:59:39;12.57;;;6.95;;
6185;SDS011;3126;52.738;8.316;2022-10-23T02:04:46;8.50;;;6.72;;
6185;SDS011;3126;52.738;8.316;2022-10-23T02:09:50;9.40;;;6.60;;
6185;SDS011;3126;52.738;8.316;2022-10-23T02:14:52;9.25;;;6.50;;
6185;SDS011;3126;52.738;8.316;2022-10-23T02:20:06;10.40;;;8.00;;
6185;SDS011;3126;52.738;8.316;2022-10-23T02:25:28;9.90;;;6.68;;
6185;SDS011;3126;52.738;8.316;2022-10-23T02:30:32;11.10;;;7.22;;
6185;SDS011;3126;52.738;8.316;2022-10-23T02:35:36;15.38;;;7.32;;
6185;SDS011;3126;52.738;8.316;2022-10-23T02:40:40;12.98;;;8.00;;
6185;SDS011;3126;52.738;8.316;2022-10-23T02:45:49;14.63;;;8.32;;
6185;SDS011;3126;52.738;8.316;2022-10-23T02:56:42;12.07;;;7.72;;
6185;SDS011;3126;52.738;8.316;2022-10-23T03:01:57;15.52;;;7.82;;
6185;SDS011;3126;52.738;8.316;2022-10-23T03:07:21;11.25;;;7.85;;
6185;SDS011;3126;52.738;8.316;2022-10-23T03:17:25;12.20;;;7.33;;
6185;SDS011;3126;52.738;8.316;2022-10-23T03:22:26;9.80;;;6.15;;
6185;SDS011;3126;52.738;8.316;2022-10-23T03:27:27;10.00;;;5.93;;
6185;SDS011;3126;52.738;8.316;2022-10-23T03:32:27;9.20;;;6.65;;
6185;SDS011;3126;52.738;8.316;2022-10-23T03:37:28;9.32;;;6.50;;
6185;SDS011;3126;52.738;8.316;2022-10-23T03:42:28;13.00;;;7.10;;
6185;SDS011;3126;52.738;8.316;2022-10-23T03:47:29;9.88;;;7.38;;
6185;SDS011;3126;52.738;8.316;2022-10-23T03:52:31;13.60;;;7.47;;
6185;SDS011;3126;52.738;8.316;2022-10-23T03:57:31;10.18;;;6.97;;
6185;SDS011;3126;52.738;8.316;2022-10-23T04:02:32;8.50;;;6.40;;
6185;SDS011;3126;52.738;8.316;2022-10-23T04:07:33;8.63;;;6.28;;
6185;SDS011;3126;52.738;8.316;2022-10-23T04:12:33;8.60;;;5.88;;
6185;SDS011;3126;52.738;8.316;2022-10-23T04:17:34;8.55;;;5.47;;
6185;SDS011;3126;52.738;8.316;2022-10-23T04:22:35;8.63;;;5.97;;
6185;SDS011;3126;52.738;8.316;2022-10-23T04:27:35;8.70;;;5.53;;
6185;SDS011;3126;52.738;8.316;2022-10-23T04:32:36;8.68;;;5.90;;
6185;SDS011;3126;52.738;8.316;2022-10-23T04:37:36;6.97;;;5.95;;
6185;SDS011;3126;52.738;8.316;2022-10-23T04:42:37;7.47;;;5.70;;
6185;SDS011;3126;52.738;8.316;2022-10-23T04:47:37;10.05;;;6.22;;
6185;SDS011;3126;52.738;8.316;2022-10-23T04:52:38;9.32;;;6.65;;
6185;SDS011;3126;52.738;8.316;2022-10-23T04:57:39;11.25;;;7.13;;
6185;SDS011;3126;52.738;8.316;2022-10-23T05:02:39;11.10;;;6.65;;
6185;SDS011;3126;52.738;8.316;2022-10-23T05:07:40;13.75;;;6.47;;
6185;SDS011;3126;52.738;8.316;2022-10-23T05:12:40;9.77;;;5.97;;
6185;SDS011;3126;52.738;8.316;2022-10-23T05:17:41;8.30;;;5.97;;
6185;SDS011;3126;52.738;8.316;2022-10-23T05:22:45;8.65;;;6.63;;
6185;SDS011;3126;52.738;8.316;2022-10-23T05:27:50;11.18;;;6.90;;
6185;SDS011;3126;52.738;8.316;2022-10-23T05:32:51;11.18;;;6.82;;
6185;SDS011;3126;52.738;8.316;2022-10-23T05:37:53;9.73;;;5.78;;
6185;SDS011;3126;52.738;8.316;2022-10-23T05:42:54;9.38;;;5.95;;
6185;SDS011;3126;52.738;8.316;2022-10-23T05:47:55;10.32;;;7.38;;
6185;SDS011;3126;52.738;8.316;2022-10-23T05:52:55;9.43;;;6.07;;
6185;SDS011;3126;52.738;8.316;2022-10-23T05:57:56;11.65;;;5.82;;
6185;SDS011;3126;52.738;8.316;2022-10-23T06:03:00;8.82;;;5.72;;
6185;SDS011;3126;52.738;8.316;2022-10-23T06:08:01;9.90;;;6.47;;
6185;SDS011;3126;52.738;8.316;2022-10-23T06:13:01;11.57;;;6.32;;
6185;SDS011;3126;52.738;8.316;2022-10-23T06:18:02;13.75;;;6.50;;
6185;SDS011;3126;52.738;8.316;2022-10-23T06:23:04;9.35;;;5.75;;
6185;SDS011;3126;52.738;8.316;2022-10-23T06:28:05;14.32;;;6.10;;
6185;SDS011;3126;52.738;8.316;2022-10-23T06:33:06;8.85;;;5.70;;
6185;SDS011;3126;52.738;8.316;2022-10-23T06:38:06;9.20;;;5.90;;
6185;SDS011;3126;52.738;8.316;2022-10-23T06:43:08;8.57;;;6.32;;
6185;SDS011;3126;52.738;8.316;2022-10-23T06:48:08;11.00;;;6.13;;
6185;SDS011;3126;52.738;8.316;2022-10-23T06:53:09;9.48;;;5.80;;
6185;SDS011;3126;52.738;8.316;2022-10-23T06:58:11;12.10;;;6.32;;
6185;SDS011;3126;52.738;8.316;2022-10-23T07:03:12;9.90;;;6.15;;
6185;SDS011;3126;52.738;8.316;2022-10-23T07:08:12;11.85;;;6.25;;
6185;SDS011;3126;52.738;8.316;2022-10-23T07:13:13;9.43;;;5.80;;
6185;SDS011;3126;52.738;8.316;2022-10-23T07:18:14;11.05;;;6.15;;
6185;SDS011;3126;52.738;8.316;2022-10-23T07:23:15;9.18;;;5.57;;
6185;SDS011;3126;52.738;8.316;2022-10-23T07:28:16;11.32;;;6.30;;
6185;SDS011;3126;52.738;8.316;2022-10-23T07:33:16;11.18;;;6.47;;
6185;SDS011;3126;52.738;8.316;2022-10-23T07:38:17;9.35;;;5.88;;
6185;SDS011;3126;52.738;8.316;2022-10-23T07:43:18;7.85;;;6.07;;
6185;SDS011;3126;52.738;8.316;2022-10-23T07:48:19;11.30;;;6.13;;
6185;SDS011;3126;52.738;8.316;2022-10-23T07:53:22;11.05;;;5.28;;
6185;SDS011;3126;52.738;8.316;2022-10-23T07:58:24;9.65;;;6.13;;
6185;SDS011;3126;52.738;8.316;2022-10-23T08:03:26;8.60;;;5.55;;
6185;SDS011;3126;52.738;8.316;2022-10-23T08:08:28;9.43;;;4.88;;
6185;SDS011;3126;52.738;8.316;2022-10-23T08:13:28;9.48;;;6.43;;
6185;SDS011;3126;52.738;8.316;2022-10-23T08:18:29;11.93;;;5.75;;
6185;SDS011;3126;52.738;8.316;2022-10-23T08:23:29;9.65;;;5.25;;
6185;SDS011;3126;52.738;8.316;2022-10-23T08:28:30;10.48;;;5.50;;
6185;SDS011;3126;52.738;8.316;2022-10-23T08:33:31;6.72;;;5.70;;
6185;SDS011;3126;52.738;8.316;2022-10-23T08:38:32;10.30;;;5.43;;
6185;SDS011;3126;52.738;8.316;2022-10-23T08:43:38;9.45;;;5.13;;
6185;SDS011;3126;52.738;8.316;2022-10-23T08:48:45;7.30;;;4.72;;
6185;SDS011;3126;52.738;8.316;2022-10-23T08:53:52;6.82;;;5.43;;
6185;SDS011;3126;52.738;8.316;2022-10-23T09:04:27;6.18;;;4.65;;
6185;SDS011;3126;52.738;8.316;2022-10-23T09:25:46;8.07;;;5.18;;
6185;SDS011;3126;52.738;8.316;2022-10-23T09:30:41;6.03;;;5.10;;
6185;SDS011;3126;52.738;8.316;2022-10-23T09:40:51;9.35;;;5.20;;
6185;SDS011;3126;52.738;8.316;2022-10-23T09:45:55;8.18;;;5.43;;
6185;SDS011;3126;52.738;8.316;2022-10-23T09:51:11;9.23;;;5.93;;
6185;SDS011;3126;52.738;8.316;2022-10-23T09:56:23;6.65;;;5.43;;
6185;SDS011;3126;52.738;8.316;2022-10-23T10:01:28;7.05;;;4.55;;
6185;SDS011;3126;52.738;8.316;2022-10-23T10:06:32;8.73;;;5.43;;
6185;SDS011;3126;52.738;8.316;2022-10-23T10:11:41;7.18;;;5.13;;
6185;SDS011;3126;52.738;8.316;2022-10-23T10:17:07;5.18;;;4.70;;
6185;SDS011;3126;52.738;8.316;2022-10-23T10:33:08;7.57;;;3.67;;
6185;SDS011;3126;52.738;8.316;2022-10-23T10:54:32;6.60;;;4.22;;
6185;SDS011;3126;52.738;8.316;2022-10-23T11:00:12;6.18;;;3.97;;
6185;SDS011;3126;52.738;8.316;2022-10-23T11:10:31;8.50;;;4.25;;
6185;SDS011;3126;52.738;8.316;2022-10-23T11:15:37;4.38;;;3.72;;
6185;SDS011;3126;52.738;8.316;2022-10-23T11:36:16;6.80;;;3.65;;
6185;SDS011;3126;52.738;8.316;2022-10-23T11:41:36;6.00;;;3.63;;
6185;SDS011;3126;52.738;8.316;2022-10-23T11:46:46;4.18;;;2.88;;
6185;SDS011;3126;52.738;8.316;2022-10-23T11:52:01;5.47;;;2.90;;
6185;SDS011;3126;52.738;8.316;2022-10-23T12:07:32;5.47;;;2.83;;
6185;SDS011;3126;52.738;8.316;2022-10-23T12:12:36;4.25;;;2.90;;
6185;SDS011;3126;52.738;8.316;2022-10-23T12:17:42;4.10;;;3.10;;
6185;SDS011;3126;52.738;8.316;2022-10-23T12:28:15;3.17;;;2.45;;
6185;SDS011;3126;52.738;8.316;2022-10-23T12:39:00;4.03;;;2.25;;
6185;SDS011;3126;52.738;8.316;2022-10-23T12:44:01;8.15;;;2.55;;
6185;SDS011;3126;52.738;8.316;2022-10-23T12:49:11;3.78;;;2.13;;
6185;SDS011;3126;52.738;8.316;2022-10-23T12:54:17;5.20;;;2.47;;
6185;SDS011;3126;52.738;8.316;2022-10-23T12:59:21;6.03;;;2.70;;
6185;SDS011;3126;52.738;8.316;2022-10-23T13:04:28;7.35;;;2.42;;
6185;SDS011;3126;52.738;8.316;2022-10-23T13:09:31;4.45;;;2.25;;
6185;SDS011;3126;52.738;8.316;2022-10-23T13:14:41;4.07;;;2.30;;
6185;SDS011;3126;52.738;8.316;2022-10-23T13:19:53;6.55;;;2.30;;
6185;SDS011;3126;52.738;8.316;2022-10-23T13:24:53;3.10;;;2.20;;
6185;SDS011;3126;52.738;8.316;2022-10-23T13:29:54;8.35;;;2.15;;
6185;SDS011;3126;52.738;8.316;2022-10-23T13:34:55;3.08;;;2.10;;
6185;SDS011;3126;52.738;8.316;2022-10-23T13:40:04;5.13;;;2.20;;
6185;SDS011;3126;52.738;8.316;2022-10-23T13:45:20;7.47;;;2.30;;
6185;SDS011;3126;52.738;8.316;2022-10-23T13:50:22;3.83;;;2.30;;
6185;SDS011;3126;52.738;8.316;2022-10-23T13:55:23;3.00;;;1.70;;
6185;SDS011;3126;52.738;8.316;2022-10-23T14:00:25;1.77;;;1.55;;
6185;SDS011;3126;52.738;8.316;2022-10-23T14:05:25;5.22;;;2.35;;
6185;SDS011;3126;52.738;8.316;2022-10-23T14:10:26;5.50;;;2.25;;
6185;SDS011;3126;52.738;8.316;2022-10-23T14:15:26;4.03;;;1.75;;
6185;SDS011;3126;52.738;8.316;2022-10-23T14:20:27;3.72;;;2.20;;
6185;SDS011;3126;52.738;8.316;2022-10-23T14:25:28;3.08;;;1.77;;
6185;SDS011;3126;52.738;8.316;2022-10-23T14:30:29;3.20;;;1.88;;
6185;SDS011;3126;52.738;8.316;2022-10-23T14:35:30;1.90;;;1.58;;
6185;SDS011;3126;52.738;8.316;2022-10-23T14:40:30;1.98;;;1.30;;
6185;SDS011;3126;52.738;8.316;2022-10-23T14:45:31;4.68;;;2.00;;
6185;SDS011;3126;52.738;8.316;2022-10-23T14:50:33;5.72;;;2.00;;
6185;SDS011;3126;52.738;8.316;2022-10-23T14:55:34;2.70;;;1.33;;
6185;SDS011;3126;52.738;8.316;2022-10-23T15:00:35;4.40;;;2.25;;
6185;SDS011;3126;52.738;8.316;2022-10-23T15:05:39;3.70;;;1.65;;
6185;SDS011;3126;52.738;8.316;2022-10-23T15:10:40;3.38;;;2.22;;
6185;SDS011;3126;52.738;8.316;2022-10-23T15:15:41;2.22;;;1.67;;
6185;SDS011;3126;52.738;8.316;2022-10-23T15:20:41;4.75;;;2.00;;
6185;SDS011;3126;52.738;8.316;2022-10-23T15:25:54;5.65;;;1.92;;
6185;SDS011;3126;52.738;8.316;2022-10-23T15:30:58;2.28;;;1.52;;
6185;SDS011;3126;52.738;8.316;2022-10-23T15:35:59;3.75;;;1.95;;
6185;SDS011;3126;52.738;8.316;2022-10-23T15:41:00;2.05;;;1.92;;
6185;SDS011;3126;52.738;8.316;2022-10-23T15:46:13;2.05;;;1.60;;
6185;SDS011;3126;52.738;8.316;2022-10-23T15:51:14;3.92;;;1.70;;
6185;SDS011;3126;52.738;8.316;2022-10-23T15:56:14;4.25;;;1.52;;
6185;SDS011;3126;52.738;8.316;2022-10-23T16:01:15;4.20;;;1.80;;
6185;SDS011;3126;52.738;8.316;2022-10-23T16:06:16;4.43;;;2.00;;
6185;SDS011;3126;52.738;8.316;2022-10-23T16:11:22;2.13;;;1.58;;
6185;SDS011;3126;52.738;8.316;2022-10-23T16:16:24;2.08;;;1.85;;
6185;SDS011;3126;52.738;8.316;2022-10-23T16:21:27;4.82;;;1.52;;
6185;SDS011;3126;52.738;8.316;2022-10-23T16:26:29;9.15;;;7.38;;
6185;SDS011;3126;52.738;8.316;2022-10-23T16:31:31;3.00;;;2.72;;
6185;SDS011;3126;52.738;8.316;2022-10-23T16:36:32;3.63;;;1.90;;
6185;SDS011;3126;52.738;8.316;2022-10-23T16:41:33;4.45;;;2.20;;
6185;SDS011;3126;52.738;8.316;2022-10-23T16:46:34;2.95;;;1.70;;
6185;SDS011;3126;52.738;8.316;2022-10-23T16:51:35;4.40;;;1.70;;
6185;SDS011;3126;52.738;8.316;2022-10-23T16:56:35;2.03;;;1.77;;
6185;SDS011;3126;52.738;8.316;2022-10-23T17:01:36;2.47;;;1.65;;
6185;SDS011;3126;52.738;8.316;2022-10-23T17:06:37;3.25;;;1.80;;
6185;SDS011;3126;52.738;8.316;2022-10-23T17:11:38;4.82;;;2.10;;
6185;SDS011;3126;52.738;8.316;2022-10-23T17:16:41;2.90;;;2.42;;
6185;SDS011;3126;52.738;8.316;2022-10-23T17:21:43;2.50;;;2.20;;
6185;SDS011;3126;52.738;8.316;2022-10-23T17:26:44;3.10;;;2.55;;
6185;SDS011;3126;52.738;8.316;2022-10-23T17:31:45;3.72;;;2.88;;
6185;SDS011;3126;52.738;8.316;2022-10-23T17:36:49;5.80;;;4.40;;
6185;SDS011;3126;52.738;8.316;2022-10-23T17:41:52;4.20;;;1.77;;
6185;SDS011;3126;52.738;8.316;2022-10-23T17:46:53;2.13;;;1.92;;
6185;SDS011;3126;52.738;8.316;2022-10-23T17:51:55;2.63;;;1.83;;
6185;SDS011;3126;52.738;8.316;2022-10-23T17:56:56;1.92;;;1.70;;
6185;SDS011;3126;52.738;8.316;2022-10-23T18:01:56;5.15;;;2.78;;
6185;SDS011;3126;52.738;8.316;2022-10-23T18:06:59;5.47;;;3.63;;
6185;SDS011;3126;52.738;8.316;2022-10-23T18:12:00;5.95;;;2.95;;
6185;SDS011;3126;52.738;8.316;2022-10-23T18:17:00;7.30;;;2.75;;
6185;SDS011;3126;52.738;8.316;2022-10-23T18:22:01;3.83;;;2.63;;
6185;SDS011;3126;52.738;8.316;2022-10-23T18:27:02;4.50;;;2.38;;
6185;SDS011;3126;52.738;8.316;2022-10-23T18:32:03;3.58;;;2.60;;
6185;SDS011;3126;52.738;8.316;2022-10-23T18:37:03;2.83;;;2.28;;
6185;SDS011;3126;52.738;8.316;2022-10-23T18:42:04;2.63;;;2.35;;
6185;SDS011;3126;52.738;8.316;2022-10-23T18:47:04;3.35;;;2.13;;
6185;SDS011;3126;52.738;8.316;2022-10-23T18:52:05;6.72;;;2.58;;
6185;SDS011;3126;52.738;8.316;2022-10-23T18:57:06;3.83;;;2.28;;
6185;SDS011;3126;52.738;8.316;2022-10-23T19:02:06;7.75;;;2.75;;
6185;SDS011;3126;52.738;8.316;2022-10-23T19:07:08;4.53;;;2.30;;
6185;SDS011;3126;52.738;8.316;2022-10-23T19:12:09;4.20;;;1.85;;
6185;SDS011;3126;52.738;8.316;2022-10-23T19:17:13;3.65;;;2.55;;
6185;SDS011;3126;52.738;8.316;2022-10-23T19:22:17;5.20;;;2.45;;
6185;SDS011;3126;52.738;8.316;2022-10-23T19:27:18;3.63;;;2.00;;
6185;SDS011;3126;52.738;8.316;2022-10-23T19:32:18;2.60;;;2.10;;
6185;SDS011;3126;52.738;8.316;2022-10-23T19:37:21;2.55;;;2.30;;
6185;SDS011;3126;52.738;8.316;2022-10-23T19:42:22;6.28;;;2.60;;
6185;SDS011;3126;52.738;8.316;2022-10-23T19:47:23;4.07;;;2.70;;
6185;SDS011;3126;52.738;8.316;2022-10-23T19:52:23;2.97;;;2.60;;
6185;SDS011;3126;52.738;8.316;2022-10-23T19:57:24;4.53;;;2.30;;
6185;SDS011;3126;52.738;8.316;2022-10-23T20:02:24;5.10;;;2.08;;
6185;SDS011;3126;52.738;8.316;2022-10-23T20:07:25;4.00;;;2.03;;
6185;SDS011;3126;52.738;8.316;2022-10-23T20:12:25;5.95;;;2.88;;
6185;SDS011;3126;52.738;8.316;2022-10-23T20:17:26;4.82;;;2.60;;
6185;SDS011;3126;52.738;8.316;2022-10-23T20:22:27;2.92;;;2.30;;
6185;SDS011;3126;52.738;8.316;2022-10-23T20:27:27;3.83;;;2.40;;
6185;SDS011;3126;52.738;8.316;2022-10-23T20:32:28;4.60;;;2.78;;
6185;SDS011;3126;52.738;8.316;2022-10-23T20:37:29;4.95;;;3.00;;
6185;SDS011;3126;52.738;8.316;2022-10-23T20:42:29;3.88;;;2.67;;
6185;SDS011;3126;52.738;8.316;2022-10-23T20:47:30;6.05;;;3.45;;
6185;SDS011;3126;52.738;8.316;2022-10-23T20:52:30;3.92;;;3.03;;
6185;SDS011;3126;52.738;8.316;2022-10-23T20:57:31;4.10;;;2.58;;
6185;SDS011;3126;52.738;8.316;2022-10-23T21:02:31;2.97;;;2.70;;
6185;SDS011;3126;52.738;8.316;2022-10-23T21:07:32;3.80;;;2.70;;
6185;SDS011;3126;52.738;8.316;2022-10-23T21:12:32;3.35;;;2.47;;
6185;SDS011;3126;52.738;8.316;2022-10-23T21:17:33;5.63;;;3.03;;
6185;SDS011;3126;52.738;8.316;2022-10-23T21:22:37;4.82;;;2.40;;
6185;SDS011;3126;52.738;8.316;2022-10-23T21:27:38;5.35;;;3.00;;
6185;SDS011;3126;52.738;8.316;2022-10-23T21:32:38;5.57;;;2.70;;
6185;SDS011;3126;52.738;8.316;2022-10-23T21:37:39;6.55;;;3.13;;
6185;SDS011;3126;52.738;8.316;2022-10-23T21:42:39;4.25;;;2.88;;
6185;SDS011;3126;52.738;8.316;2022-10-23T21:47:40;3.30;;;2.58;;
6185;SDS011;3126;52.738;8.316;2022-10-23T21:52:41;3.58;;;2.67;;
6185;SDS011;3126;52.738;8.316;2022-10-23T21:57:41;4.28;;;2.80;;
6185;SDS011;3126;52.738;8.316;2022-10-23T22:02:42;4.57;;;2.38;;
6185;SDS011;3126;52.738;8.316;2022-10-23T22:07:45;7.68;;;3.28;;
6185;SDS011;3126;52.738;8.316;2022-10-23T22:12:46;5.80;;;3.10;;
6185;SDS011;3126;52.738;8.316;2022-10-23T22:17:47;3.65;;;2.90;;
6185;SDS011;3126;52.738;8.316;2022-10-23T22:22:48;12.38;;;3.00;;
6185;SDS011;3126;52.738;8.316;2022-10-23T22:27:48;2.70;;;2.50;;
6185;SDS011;3126;52.738;8.316;2022-10-23T22:32:49;3.33;;;2.70;;
6185;SDS011;3126;52.738;8.316;2022-10-23T22:37:49;4.90;;;2.63;;
6185;SDS011;3126;52.738;8.316;2022-10-23T22:42:50;3.42;;;2.60;;
6185;SDS011;3126;52.738;8.316;2022-10-23T22:47:50;5.20;;;2.70;;
6185;SDS011;3126;52.738;8.316;2022-10-23T22:52:51;6.05;;;2.60;;
6185;SDS011;3126;52.738;8.316;2022-10-23T22:57:51;8.25;;;2.38;;
6185;SDS011;3126;52.738;8.316;2022-10-23T23:02:52;6.97;;;2.75;;
6185;SDS011;3126;52.738;8.316;2022-10-23T23:07:52;3.58;;;2.38;;
6185;SDS011;3126;52.738;8.316;2022-10-23T23:12:53;3.58;;;2.45;;
6185;SDS011;3126;52.738;8.316;2022-10-23T23:17:53;6.30;;;2.58;;
6185;SDS011;3126;52.738;8.316;2022-10-23T23:22:54;4.20;;;2.35;;
6185;SDS011;3126;52.738;8.316;2022-10-23T23:27:54;4.38;;;2.50;;
6185;SDS011;3126;52.738;8.316;2022-10-23T23:32:55;3.67;;;2.38;;
6185;SDS011;3126;52.738;8.316;2022-10-23T23:37:56;2.95;;;1.90;;
6185;SDS011;3126;52.738;8.316;2022-10-23T23:42:56;3.25;;;2.30;;
6185;SDS011;3126;52.738;8.316;2022-10-23T23:47:57;4.05;;;1.80;;
6185;SDS011;3126;52.738;8.316;2022-10-23T23:52:58;3.80;;;2.00;;
6185;SDS011;3126;52.738;8.316;2022-10-23T23:57:58;6.57;;;1.83;;
